createdAt,value
2016-10-14T00:00:02.156Z,53
2016-10-14T00:10:02.121Z,53
2016-10-14T00:20:02.145Z,53
2016-10-14T00:30:02.170Z,53
2016-10-14T00:40:02.143Z,51.9
2016-10-14T00:50:02.128Z,51.9
2016-10-14T01:00:02.124Z,53
2016-10-14T01:10:02.126Z,52.5
2016-10-14T01:20:02.123Z,53
2016-10-14T01:30:02.123Z,53
2016-10-14T01:40:02.135Z,52.5
2016-10-14T01:50:02.127Z,52.5
2016-10-14T02:00:02.124Z,52.5
2016-10-14T02:10:02.122Z,51.9
2016-10-14T02:20:02.125Z,52.5
2016-10-14T02:30:02.123Z,51.9
2016-10-14T02:40:02.131Z,51.9
2016-10-14T02:50:02.123Z,51.9
2016-10-14T03:00:02.122Z,51.9
2016-10-14T03:10:02.122Z,51.9
2016-10-14T03:20:02.120Z,51.9
2016-10-14T03:30:02.120Z,51.9
2016-10-14T03:40:02.132Z,51.9
2016-10-14T03:50:02.151Z,51.4
2016-10-14T04:00:02.192Z,51.9
2016-10-14T04:10:02.125Z,51.9
2016-10-14T04:20:02.124Z,51.9
2016-10-14T04:30:02.121Z,51.9
2016-10-14T04:40:02.120Z,51.9
2016-10-14T04:50:02.122Z,51.9
2016-10-14T05:00:02.122Z,51.9
2016-10-14T05:10:02.138Z,51.9
2016-10-14T05:20:02.136Z,51.9
2016-10-14T05:30:02.133Z,51.9
2016-10-14T05:40:02.124Z,51.9
2016-10-14T05:50:02.124Z,51.9
2016-10-14T06:00:02.136Z,51.9
2016-10-14T06:10:02.124Z,51.9
2016-10-14T06:20:02.145Z,51.9
2016-10-14T06:30:02.129Z,51.9
2016-10-14T06:40:02.162Z,51.9
2016-10-14T06:50:02.130Z,51.9
2016-10-14T07:00:02.147Z,51.9
2016-10-14T07:10:02.129Z,52.5
2016-10-14T07:20:02.141Z,51.9
2016-10-14T07:30:02.139Z,52.5
2016-10-14T07:40:01.384Z,51.9
2016-10-14T07:50:10.458Z,51.9
2016-10-14T08:00:10.434Z,52.5
2016-10-14T08:10:10.426Z,52.5
2016-10-14T08:20:10.426Z,53
2016-10-14T08:30:03.807Z,53
2016-10-14T08:40:02.142Z,53
2016-10-14T08:50:02.145Z,52.5
2016-10-14T09:00:02.166Z,53
2016-10-14T09:10:02.182Z,53
2016-10-14T09:20:02.137Z,53
2016-10-14T09:30:02.140Z,53
2016-10-14T09:40:02.132Z,53.5
2016-10-14T09:50:02.169Z,53
2016-10-14T10:00:02.127Z,53.5
2016-10-14T10:10:02.126Z,54.1
2016-10-14T10:20:02.138Z,54.1
2016-10-14T10:30:02.193Z,54.6
2016-10-14T10:40:02.135Z,54.1
2016-10-14T10:50:02.130Z,54.1
2016-10-14T11:00:02.159Z,54.1
2016-10-14T11:10:02.168Z,54.6
2016-10-14T11:20:02.128Z,55.1
2016-10-14T11:30:02.130Z,55.1
2016-10-14T11:40:02.137Z,55.1
2016-10-14T11:50:02.123Z,55.7
2016-10-14T12:00:02.123Z,55.1
2016-10-14T12:10:02.125Z,55.1
2016-10-14T12:20:02.110Z,55.1
2016-10-14T12:30:02.157Z,55.1
2016-10-14T12:40:02.139Z,56.2
2016-10-14T12:50:02.158Z,55.7
2016-10-14T13:00:02.156Z,56.2
2016-10-14T13:10:02.123Z,55.7
2016-10-14T13:20:00.483Z,56.2
2016-10-14T13:30:02.136Z,56.2
2016-10-14T13:40:10.418Z,55.7
2016-10-14T13:50:10.418Z,56.2
2016-10-14T14:00:10.415Z,56.2
2016-10-14T14:10:03.917Z,56.8
2016-10-14T14:20:02.139Z,56.2
2016-10-14T14:30:02.141Z,56.2
2016-10-14T14:40:02.157Z,56.8
2016-10-14T14:50:02.158Z,56.8
2016-10-14T15:00:02.131Z,56.2
2016-10-14T15:10:02.140Z,56.8
2016-10-14T15:20:02.136Z,56.2
2016-10-14T15:30:02.126Z,57.3
2016-10-14T15:40:02.134Z,56.2
2016-10-14T15:50:02.128Z,56.8
2016-10-14T16:00:02.119Z,56.8
2016-10-14T16:10:02.124Z,56.2
2016-10-14T16:20:02.130Z,56.8
2016-10-14T16:30:02.135Z,56.8
2016-10-14T16:40:02.161Z,56.2
2016-10-14T16:50:02.137Z,56.8
2016-10-14T17:00:02.179Z,56.2
2016-10-14T17:10:02.128Z,57.3
2016-10-14T17:20:00.921Z,56.8
2016-10-14T17:30:02.141Z,56.8
2016-10-14T17:40:10.423Z,56.8
2016-10-14T17:50:10.412Z,56.2
2016-10-14T18:00:10.417Z,56.8
2016-10-14T18:10:05.163Z,56.2
2016-10-14T18:20:02.177Z,56.2
2016-10-14T18:30:02.133Z,56.2
2016-10-14T18:40:02.176Z,56.2
2016-10-14T18:50:02.165Z,56.2
2016-10-14T19:00:02.143Z,55.7
2016-10-14T19:10:02.133Z,56.2
2016-10-14T19:20:02.149Z,56.2
2016-10-14T19:30:02.103Z,55.7
2016-10-14T19:40:02.114Z,56.2
2016-10-14T19:50:02.129Z,55.7
2016-10-14T20:00:02.112Z,55.7
2016-10-14T20:10:02.148Z,56.2
2016-10-14T20:20:02.120Z,55.7
2016-10-14T20:30:00.861Z,56.2
2016-10-14T20:40:02.140Z,55.7
2016-10-14T20:50:10.407Z,55.7
2016-10-14T21:00:10.379Z,56.2
2016-10-14T21:10:10.406Z,55.7
2016-10-14T21:20:07.480Z,55.7
2016-10-14T21:30:02.173Z,55.7
2016-10-14T21:40:02.119Z,55.1
2016-10-14T21:50:02.130Z,55.7
2016-10-14T22:00:02.161Z,55.7
2016-10-14T22:10:02.159Z,55.1
2016-10-14T22:20:02.176Z,55.7
2016-10-14T22:30:02.127Z,55.7
2016-10-14T22:40:02.170Z,55.7
2016-10-14T22:50:02.135Z,55.1
2016-10-14T23:00:02.175Z,55.1
2016-10-14T23:10:02.171Z,55.1
2016-10-14T23:20:02.134Z,55.1
2016-10-14T23:30:02.132Z,55.7
2016-10-14T23:40:02.139Z,55.7
2016-10-14T23:50:02.161Z,55.1
